Time;durP1;ratioP1;P1;durP2;ratioP2;P2;SDS_P1;SDS_P2;PMS_P1;PMS_P2;Temp;Humidity;BMP_temperature;BMP_pressure;BME280_temperature;BME280_humidity;BME280_pressure;Samples;Min_cycle;Max_cycle;Signal;HPM_P1;HPM_P2
2022/08/24 00:01:23;;;;;;;39.42;34.45;;;19.50;99.90;;;;;;5014738;28;20049;-78
2022/08/24 00:03:49;;;;;;;43.10;35.67;;;19.50;99.90;;;;;;4959193;28;20096;-78
2022/08/24 00:06:21;;;;;;;41.92;35.78;;;19.50;99.90;;;;;;4978510;28;20041;-78
2022/08/24 00:08:48;;;;;;;37.95;33.85;;;19.50;99.90;;;;;;4994999;28;20049;-78
2022/08/24 00:11:15;;;;;;;43.83;36.60;;;19.50;99.90;;;;;;4992566;28;20042;-78
2022/08/24 00:13:41;;;;;;;38.80;32.20;;;19.50;99.90;;;;;;4992200;28;20060;-78
2022/08/24 00:16:08;;;;;;;40.65;32.35;;;19.50;99.90;;;;;;4998096;28;20466;-78
2022/08/24 00:18:34;;;;;;;41.50;36.40;;;19.50;99.90;;;;;;4993965;28;20469;-78
2022/08/24 00:21:00;;;;;;;41.83;36.47;;;19.60;99.90;;;;;;4975716;28;20050;-78
2022/08/24 00:23:27;;;;;;;43.05;35.55;;;19.50;99.90;;;;;;4992426;28;20046;-78
2022/08/24 00:25:53;;;;;;;44.85;33.83;;;19.50;99.90;;;;;;4998531;28;20029;-78
2022/08/24 00:28:19;;;;;;;42.72;34.55;;;19.50;99.90;;;;;;4977086;28;20038;-78
2022/08/24 00:30:45;;;;;;;47.05;36.63;;;19.50;99.90;;;;;;4979657;28;20049;-78
2022/08/24 00:33:11;;;;;;;46.53;38.40;;;19.50;99.90;;;;;;5005296;28;20518;-78
2022/08/24 00:35:36;;;;;;;47.30;38.72;;;19.40;99.90;;;;;;5008853;28;20045;-78
2022/08/24 00:38:02;;;;;;;46.85;38.08;;;19.40;99.90;;;;;;4995753;28;20045;-78
2022/08/24 00:40:32;;;;;;;56.42;39.45;;;19.40;99.90;;;;;;5008968;28;20037;-78
2022/08/24 00:43:03;;;;;;;47.67;38.47;;;19.30;99.90;;;;;;4991905;28;20216;-78
2022/08/24 00:45:32;;;;;;;48.63;39.72;;;19.30;99.90;;;;;;4992766;28;20037;-78
2022/08/24 00:48:03;;;;;;;47.50;38.85;;;19.20;99.90;;;;;;4994969;28;20088;-78
2022/08/24 00:50:39;;;;;;;49.40;38.35;;;19.20;99.90;;;;;;4978374;28;20034;-78
2022/08/24 00:53:10;;;;;;;47.38;39.75;;;19.10;99.90;;;;;;4991727;28;20046;-78
2022/08/24 00:55:42;;;;;;;53.30;41.53;;;19.10;99.90;;;;;;4981895;28;20084;-78
2022/08/24 00:58:19;;;;;;;47.35;38.85;;;19.00;99.90;;;;;;4976488;28;20041;-78
2022/08/24 01:00:49;;;;;;;43.22;37.05;;;19.00;99.90;;;;;;4974452;28;20519;-78
2022/08/24 01:03:15;;;;;;;52.55;40.03;;;19.00;99.90;;;;;;4992794;28;20042;-78
2022/08/24 01:05:42;;;;;;;43.50;37.05;;;19.00;99.90;;;;;;4980132;28;20746;-78
2022/08/24 01:08:10;;;;;;;42.08;35.55;;;18.90;99.90;;;;;;4990131;28;20054;-78
2022/08/24 01:10:41;;;;;;;41.95;35.78;;;18.90;99.90;;;;;;4971107;28;20042;-78
2022/08/24 01:13:09;;;;;;;42.97;34.87;;;18.80;99.90;;;;;;4990008;28;20033;-77
2022/08/24 01:15:39;;;;;;;42.53;34.88;;;18.70;99.90;;;;;;4990172;28;20046;-77
2022/08/24 01:21:15;;;;;;;37.35;31.63;;;18.60;99.90;;;;;;5007315;28;20111;-78
2022/08/24 01:23:42;;;;;;;39.42;33.58;;;18.60;99.90;;;;;;4976084;28;20120;-77
2022/08/24 01:26:17;;;;;;;37.92;33.83;;;18.50;99.90;;;;;;4993729;28;20052;-78
2022/08/24 01:28:47;;;;;;;39.85;34.58;;;18.50;99.90;;;;;;4995397;28;20531;-77
2022/08/24 01:31:12;;;;;;;38.15;32.90;;;18.50;99.90;;;;;;4995453;28;20042;-77
2022/08/24 01:33:39;;;;;;;36.53;32.22;;;18.40;99.90;;;;;;5005621;28;20514;-77
2022/08/24 01:36:10;;;;;;;39.63;34.13;;;18.40;99.90;;;;;;4954688;28;20535;-77
2022/08/24 01:38:36;;;;;;;42.17;34.93;;;18.40;99.90;;;;;;4986151;28;20138;-77
2022/08/24 01:41:03;;;;;;;39.55;32.55;;;18.40;99.90;;;;;;4985193;28;20070;-78
2022/08/24 01:43:29;;;;;;;45.13;37.60;;;18.40;99.90;;;;;;4963066;28;20518;-77
2022/08/24 01:45:55;;;;;;;49.47;38.28;;;18.40;99.90;;;;;;4971735;28;20038;-77
2022/08/24 01:48:21;;;;;;;44.28;37.78;;;18.40;99.90;;;;;;4948428;28;20042;-78
2022/08/24 01:50:47;;;;;;;44.75;37.05;;;18.30;99.90;;;;;;4938062;28;20035;-77
2022/08/24 01:53:13;;;;;;;45.88;39.83;;;18.30;99.90;;;;;;4938417;28;20038;-77
2022/08/24 01:55:40;;;;;;;49.47;39.78;;;18.30;99.90;;;;;;4953977;28;20507;-78
2022/08/24 01:58:07;;;;;;;46.97;37.55;;;18.30;99.90;;;;;;4966449;28;20042;-77
2022/08/24 02:00:34;;;;;;;46.53;38.72;;;18.30;99.90;;;;;;4969672;28;20400;-78
2022/08/24 02:03:00;;;;;;;47.63;37.15;;;18.30;99.90;;;;;;4952503;28;20046;-78
2022/08/24 02:05:26;;;;;;;41.63;34.70;;;18.30;99.90;;;;;;4950031;28;20093;-78
2022/08/24 02:07:52;;;;;;;39.33;33.58;;;18.30;99.90;;;;;;4954185;28;20046;-78
2022/08/24 02:10:18;;;;;;;42.35;37.03;;;18.20;99.90;;;;;;4969877;28;20089;-78
2022/08/24 02:12:56;;;;;;;41.10;35.35;;;18.20;99.90;;;;;;4968813;28;20045;-78
2022/08/24 02:15:38;;;;;;;44.78;37.22;;;18.20;99.90;;;;;;4954063;28;20046;-78
2022/08/24 02:18:06;;;;;;;44.78;36.38;;;18.20;99.90;;;;;;4971040;28;20447;-78
2022/08/24 02:20:32;;;;;;;44.05;37.17;;;18.10;99.90;;;;;;4954590;28;20038;-78
2022/08/24 02:22:58;;;;;;;42.92;36.92;;;18.10;99.90;;;;;;4972892;28;20124;-78
2022/08/24 02:25:29;;;;;;;51.25;41.72;;;18.10;99.90;;;;;;4938622;28;20136;-78
2022/08/24 02:27:56;;;;;;;48.65;37.72;;;18.00;99.90;;;;;;4964649;28;20077;-78
2022/08/24 02:30:23;;;;;;;45.38;38.88;;;18.00;99.90;;;;;;4970690;28;20117;-78
2022/08/24 02:32:49;;;;;;;49.58;39.92;;;18.00;99.90;;;;;;4969272;28;20069;-77
2022/08/24 02:35:15;;;;;;;52.08;40.58;;;17.90;99.90;;;;;;4987204;28;20050;-78
2022/08/24 02:37:41;;;;;;;44.90;39.10;;;17.90;99.90;;;;;;4973911;28;20041;-78
2022/08/24 02:40:08;;;;;;;43.90;37.90;;;17.80;99.90;;;;;;4974384;28;20117;-78
2022/08/24 02:42:35;;;;;;;45.08;36.45;;;17.80;99.90;;;;;;4991159;28;20411;-78
2022/08/24 02:45:02;;;;;;;42.83;35.70;;;17.80;99.90;;;;;;4973572;28;20042;-78
2022/08/24 02:47:28;;;;;;;44.95;34.50;;;17.70;99.90;;;;;;4972694;28;20136;-77
2022/08/24 02:49:53;;;;;;;42.25;35.10;;;17.70;99.90;;;;;;4957632;28;20141;-78
2022/08/24 02:52:19;;;;;;;42.70;34.17;;;17.70;99.90;;;;;;4988675;28;20038;-78
2022/08/24 02:54:45;;;;;;;41.30;34.13;;;17.70;99.90;;;;;;4988830;28;20137;-78
2022/08/24 02:57:11;;;;;;;45.55;35.20;;;17.60;99.90;;;;;;4973192;28;20117;-78
2022/08/24 02:59:36;;;;;;;45.08;36.83;;;17.60;99.90;;;;;;4988723;28;20049;-78
2022/08/24 03:02:03;;;;;;;44.13;36.65;;;17.50;99.90;;;;;;4989971;28;20038;-78
2022/08/24 03:04:29;;;;;;;43.30;35.92;;;17.50;99.90;;;;;;4988743;28;20513;-78
2022/08/24 03:06:54;;;;;;;40.47;34.33;;;17.50;99.90;;;;;;4989978;28;20038;-78
2022/08/24 03:09:20;;;;;;;51.30;40.40;;;17.50;99.90;;;;;;4974365;28;20048;-78
2022/08/24 03:11:45;;;;;;;46.80;38.53;;;17.40;99.90;;;;;;4973733;28;20042;-78
2022/08/24 03:14:12;;;;;;;54.58;41.83;;;17.40;99.90;;;;;;4990637;28;20072;-78
2022/08/24 03:16:37;;;;;;;49.58;42.08;;;17.40;99.90;;;;;;4976196;28;20080;-78
2022/08/24 03:19:04;;;;;;;52.03;39.75;;;17.40;99.90;;;;;;4993529;28;20069;-78
2022/08/24 03:21:29;;;;;;;59.80;45.50;;;17.50;99.90;;;;;;4993068;28;20129;-78
2022/08/24 03:23:55;;;;;;;51.75;40.03;;;17.50;99.90;;;;;;4992314;28;20176;-78
2022/08/24 03:26:21;;;;;;;51.88;42.25;;;17.50;99.90;;;;;;4993921;28;20041;-78
2022/08/24 03:28:48;;;;;;;47.97;39.80;;;17.50;99.90;;;;;;4992149;28;20069;-78
2022/08/24 03:31:14;;;;;;;55.50;42.22;;;17.40;99.90;;;;;;4993645;28;20128;-78
2022/08/24 03:33:39;;;;;;;58.05;44.53;;;17.40;99.90;;;;;;4975801;28;20507;-78
2022/08/24 03:36:05;;;;;;;54.80;41.78;;;17.40;99.90;;;;;;4993640;28;20038;-78
2022/08/24 03:38:31;;;;;;;52.28;40.75;;;17.40;99.90;;;;;;4992888;28;20041;-78
2022/08/24 03:40:57;;;;;;;54.63;42.42;;;17.40;99.90;;;;;;4974684;28;20057;-78
2022/08/24 03:46:07;;;;;;;54.30;42.83;;;17.40;99.90;;;;;;4990664;28;20100;-78
2022/08/24 03:48:34;;;;;;;52.35;40.15;;;17.40;99.90;;;;;;4991774;28;20053;-78
2022/08/24 03:50:59;;;;;;;52.03;40.88;;;17.30;99.90;;;;;;4991795;28;20034;-78
2022/08/24 03:53:25;;;;;;;48.10;38.15;;;17.40;99.90;;;;;;4975797;28;20580;-78
2022/08/24 03:55:51;;;;;;;45.22;38.65;;;17.60;99.90;;;;;;4991013;28;20483;-78
2022/08/24 03:58:17;;;;;;;54.17;43.10;;;17.30;99.90;;;;;;4959083;28;20133;-78
2022/08/24 04:00:43;;;;;;;62.85;46.88;;;17.30;99.90;;;;;;4976177;28;20056;-78
2022/08/24 04:03:10;;;;;;;51.95;41.70;;;17.30;99.90;;;;;;4990559;28;20058;-78
2022/08/24 04:05:37;;;;;;;43.45;35.33;;;17.30;99.90;;;;;;4975291;28;20045;-78
2022/08/24 04:08:04;;;;;;;42.03;33.33;;;17.30;99.90;;;;;;4974133;28;20038;-78
2022/08/24 04:10:31;;;;;;;38.33;32.40;;;17.10;99.90;;;;;;4990389;28;20038;-78
2022/08/24 04:12:59;;;;;;;40.55;33.60;;;17.00;99.90;;;;;;4989472;28;20084;-78
2022/08/24 04:15:25;;;;;;;34.42;30.20;;;17.00;99.90;;;;;;4989973;28;20088;-78
2022/08/24 04:17:51;;;;;;;38.45;31.77;;;16.90;99.90;;;;;;4975507;28;20042;-78
2022/08/24 04:20:16;;;;;;;37.42;31.10;;;16.90;99.90;;;;;;4990836;28;20069;-78
2022/08/24 04:22:43;;;;;;;39.47;32.53;;;16.90;99.90;;;;;;4978813;28;20120;-77
2022/08/24 04:25:09;;;;;;;42.90;34.50;;;16.90;99.90;;;;;;4994971;28;20041;-78
2022/08/24 04:27:35;;;;;;;51.85;40.42;;;16.90;99.90;;;;;;4974134;28;20487;-78
2022/08/24 04:30:02;;;;;;;52.45;39.97;;;16.90;99.90;;;;;;4989959;28;20088;-78
2022/08/24 04:32:31;;;;;;;52.75;41.83;;;16.90;99.90;;;;;;4975648;28;20104;-78
2022/08/24 04:34:58;;;;;;;59.45;43.17;;;16.90;99.90;;;;;;4980110;28;20077;-77
2022/08/24 04:37:24;;;;;;;49.35;36.35;;;16.90;99.90;;;;;;4976008;28;20061;-77
2022/08/24 04:39:52;;;;;;;47.85;37.45;;;16.90;99.90;;;;;;4957931;28;20179;-77
2022/08/24 04:42:18;;;;;;;45.42;36.45;;;16.90;99.90;;;;;;4975932;28;20037;-77
2022/08/24 04:44:44;;;;;;;51.15;38.40;;;16.80;99.90;;;;;;4956094;28;20527;-77
2022/08/24 04:47:10;;;;;;;59.72;44.45;;;16.90;99.90;;;;;;4971768;28;20042;-77
2022/08/24 04:49:37;;;;;;;60.38;46.03;;;16.90;99.90;;;;;;4955124;28;20054;-77
2022/08/24 04:52:03;;;;;;;66.53;46.92;;;16.90;99.90;;;;;;4971792;28;20040;-77
2022/08/24 04:54:31;;;;;;;71.47;48.92;;;16.90;99.90;;;;;;4959208;28;20050;-77
2022/08/24 04:56:57;;;;;;;55.75;40.67;;;16.90;99.90;;;;;;4957801;28;20030;-77
2022/08/24 04:59:23;;;;;;;52.83;40.78;;;16.90;99.90;;;;;;4971361;28;20048;-77
2022/08/24 05:01:48;;;;;;;46.22;37.72;;;16.90;99.90;;;;;;4974928;28;20038;-77
2022/08/24 05:04:14;;;;;;;52.95;38.53;;;17.00;99.90;;;;;;4971933;28;20057;-77
2022/08/24 05:06:41;;;;;;;56.08;42.22;;;17.00;99.90;;;;;;4958365;28;20129;-77
2022/08/24 05:09:08;;;;;;;50.22;39.10;;;17.10;99.90;;;;;;4971315;28;20110;-77
2022/08/24 05:11:36;;;;;;;50.85;39.15;;;17.10;99.90;;;;;;4973953;28;20117;-77
2022/08/24 05:14:02;;;;;;;50.85;39.80;;;17.10;99.90;;;;;;4973565;28;20561;-77
2022/08/24 05:16:28;;;;;;;49.10;37.42;;;17.10;99.90;;;;;;4973307;28;20038;-76
2022/08/24 05:18:55;;;;;;;52.10;40.35;;;17.20;99.90;;;;;;4964463;28;20388;-77
2022/08/24 05:21:23;;;;;;;53.03;40.05;;;17.20;99.90;;;;;;4975745;28;20443;-78
2022/08/24 05:23:49;;;;;;;55.03;42.22;;;17.30;99.90;;;;;;4957664;28;20038;-77
2022/08/24 05:26:18;;;;;;;57.10;44.08;;;17.30;99.90;;;;;;4952112;28;20046;-77
2022/08/24 05:28:45;;;;;;;54.17;41.45;;;17.30;99.90;;;;;;4986427;28;20070;-78
2022/08/24 05:31:14;;;;;;;52.45;41.50;;;17.30;99.90;;;;;;4988746;28;20399;-77
2022/08/24 05:33:40;;;;;;;53.15;40.22;;;17.30;99.90;;;;;;4973283;28;20042;-77
2022/08/24 05:36:22;;;;;;;59.95;43.17;;;17.40;99.90;;;;;;4939135;28;20601;-77
2022/08/24 05:38:49;;;;;;;55.08;41.67;;;17.40;99.90;;;;;;4970657;28;20042;-77
2022/08/24 05:41:16;;;;;;;62.13;46.33;;;17.40;99.90;;;;;;4968754;28;20042;-77
2022/08/24 05:43:42;;;;;;;64.47;44.05;;;17.50;99.90;;;;;;4955343;28;20082;-77
2022/08/24 05:46:08;;;;;;;63.55;45.25;;;17.50;99.90;;;;;;4970200;28;20125;-77
2022/08/24 05:48:37;;;;;;;59.20;43.03;;;17.50;99.90;;;;;;4936905;28;20671;-77
2022/08/24 05:51:04;;;;;;;58.83;42.25;;;17.50;99.90;;;;;;4985312;28;20480;-77
2022/08/24 05:53:30;;;;;;;67.90;43.47;;;17.60;99.90;;;;;;4968073;28;20031;-77
2022/08/24 05:55:56;;;;;;;59.05;42.40;;;17.60;99.90;;;;;;4953608;28;20057;-77
2022/08/24 05:58:21;;;;;;;57.78;42.80;;;17.60;99.90;;;;;;4953020;28;20466;-77
2022/08/24 06:00:49;;;;;;;67.28;47.97;;;17.70;99.90;;;;;;4955860;28;20038;-77
2022/08/24 06:03:15;;;;;;;59.78;44.33;;;17.70;99.90;;;;;;4972619;28;20061;-76
2022/08/24 06:05:42;;;;;;;52.33;41.42;;;17.80;99.90;;;;;;4938015;28;20100;-77
2022/08/24 06:08:08;;;;;;;62.13;42.92;;;17.90;99.90;;;;;;4970214;28;20065;-77
2022/08/24 06:10:49;;;;;;;64.35;47.35;;;18.00;99.90;;;;;;4969852;28;20399;-77
2022/08/24 06:13:15;;;;;;;59.40;45.88;;;18.10;99.90;;;;;;4968720;28;20092;-77
2022/08/24 06:15:42;;;;;;;66.03;47.67;;;18.10;99.90;;;;;;4957422;28;20027;-77
2022/08/24 06:18:08;;;;;;;79.70;51.67;;;18.20;99.90;;;;;;4970363;28;20113;-77
2022/08/24 06:20:39;;;;;;;68.63;49.25;;;18.30;99.90;;;;;;4970835;28;20038;-77
2022/08/24 06:23:05;;;;;;;71.05;48.72;;;18.40;99.90;;;;;;4977155;28;20113;-77
2022/08/24 06:28:15;;;;;;;68.28;50.03;;;18.50;99.90;;;;;;4956213;28;20049;-77
2022/08/24 06:30:44;;;;;;;75.43;53.67;;;18.60;99.90;;;;;;4956709;28;20034;-75
2022/08/24 06:33:09;;;;;;;73.03;51.13;;;18.70;99.90;;;;;;4965435;28;20410;-75
2022/08/24 06:35:35;;;;;;;77.97;51.22;;;18.80;99.90;;;;;;4974178;28;20077;-75
2022/08/24 06:38:01;;;;;;;69.50;52.28;;;18.90;99.90;;;;;;4971375;28;20042;-74
2022/08/24 06:40:27;;;;;;;72.70;53.63;;;19.00;99.90;;;;;;5005302;28;20123;-74
2022/08/24 06:42:52;;;;;;;73.80;52.78;;;19.10;99.90;;;;;;4988030;28;20129;-74
2022/08/24 06:45:20;;;;;;;76.63;56.15;;;19.20;99.90;;;;;;4973009;28;20034;-73
2022/08/24 06:47:46;;;;;;;87.10;53.92;;;19.30;99.90;;;;;;4991503;28;20042;-73
2022/08/24 06:50:12;;;;;;;74.47;53.83;;;19.50;99.90;;;;;;4991224;28;20099;-74
2022/08/24 06:52:39;;;;;;;73.68;53.35;;;19.60;99.90;;;;;;4977274;28;20034;-74
2022/08/24 06:55:06;;;;;;;70.50;52.17;;;19.70;99.90;;;;;;4992032;28;20555;-73
2022/08/24 06:57:31;;;;;;;71.85;52.90;;;19.80;99.90;;;;;;4976243;28;20113;-74
2022/08/24 06:59:57;;;;;;;64.43;48.30;;;19.90;99.90;;;;;;4991720;28;20045;-73
2022/08/24 07:02:23;;;;;;;63.55;48.25;;;20.10;99.90;;;;;;4992115;28;20053;-73
2022/08/24 07:04:49;;;;;;;59.17;46.75;;;20.30;99.90;;;;;;4959482;28;20042;-73
2022/08/24 07:07:15;;;;;;;57.92;46.58;;;20.40;99.90;;;;;;4975759;28;20483;-73
2022/08/24 07:09:41;;;;;;;61.22;46.10;;;20.60;99.90;;;;;;4975224;28;20038;-73
2022/08/24 07:12:07;;;;;;;50.72;41.70;;;20.80;99.90;;;;;;4959425;28;20173;-74
2022/08/24 07:14:33;;;;;;;46.05;38.65;;;20.90;99.90;;;;;;4993031;28;20038;-74
2022/08/24 07:16:58;;;;;;;49.65;37.22;;;21.10;99.90;;;;;;4991707;28;20057;-74
2022/08/24 07:19:24;;;;;;;51.05;40.85;;;21.20;99.90;;;;;;4991259;28;20124;-73
2022/08/24 07:21:54;;;;;;;54.10;42.05;;;21.40;99.90;;;;;;4991576;28;20116;-73
2022/08/24 07:24:20;;;;;;;49.53;40.38;;;21.60;99.90;;;;;;4991470;28;20053;-72
2022/08/24 07:26:45;;;;;;;49.15;39.83;;;21.80;99.90;;;;;;4974276;28;20041;-72
2022/08/24 07:29:14;;;;;;;49.15;38.38;;;22.00;99.90;;;;;;5007911;28;20056;-72
2022/08/24 07:31:41;;;;;;;46.63;38.75;;;22.10;99.90;;;;;;4991588;28;20049;-72
2022/08/24 07:34:09;;;;;;;42.88;35.72;;;22.40;99.90;;;;;;4991540;28;20058;-72
2022/08/24 07:36:37;;;;;;;43.92;35.58;;;22.50;99.90;;;;;;4995584;28;20054;-74
2022/08/24 07:39:04;;;;;;;36.75;32.67;;;22.60;99.90;;;;;;4990739;28;20045;-74
2022/08/24 07:41:30;;;;;;;37.55;32.17;;;22.80;99.90;;;;;;4991866;28;20034;-72
2022/08/24 07:43:57;;;;;;;32.42;26.77;;;23.10;99.90;;;;;;4994641;28;20073;-72
2022/08/24 07:46:22;;;;;;;30.05;25.58;;;23.30;99.90;;;;;;4990833;28;20077;-72
2022/08/24 07:48:49;;;;;;;28.77;24.45;;;23.50;99.90;;;;;;4991179;28;20070;-72
2022/08/24 07:51:18;;;;;;;22.95;19.48;;;23.60;99.90;;;;;;4974132;28;20453;-72
2022/08/24 07:53:45;;;;;;;26.60;18.70;;;23.90;99.90;;;;;;4991196;28;20034;-72
2022/08/24 07:56:11;;;;;;;17.40;13.77;;;24.10;99.90;;;;;;4991565;28;20076;-72
2022/08/24 07:58:37;;;;;;;12.50;9.20;;;24.30;99.90;;;;;;4994220;28;20038;-72
2022/08/24 08:01:05;;;;;;;15.80;11.35;;;24.30;99.90;;;;;;4976300;28;20300;-73
2022/08/24 08:03:32;;;;;;;16.55;12.50;;;24.40;99.90;;;;;;4995957;28;20041;-73
2022/08/24 08:06:01;;;;;;;13.15;11.57;;;24.40;99.90;;;;;;4993699;28;20060;-73
2022/08/24 08:08:28;;;;;;;12.88;11.13;;;24.50;99.90;;;;;;4978200;28;20719;-72
2022/08/24 08:10:53;;;;;;;12.38;10.15;;;24.60;99.90;;;;;;4976629;28;20030;-73
2022/08/24 08:13:19;;;;;;;18.70;12.77;;;24.60;99.90;;;;;;4978086;28;20064;-73
2022/08/24 08:15:45;;;;;;;16.20;13.27;;;24.80;99.90;;;;;;4992907;28;20053;-73
2022/08/24 08:18:11;;;;;;;16.50;12.77;;;24.90;99.90;;;;;;4994113;28;20030;-73
2022/08/24 08:20:39;;;;;;;14.73;13.13;;;24.90;99.90;;;;;;4994140;28;20113;-73
2022/08/24 08:25:56;;;;;;;18.42;15.48;;;25.20;99.90;;;;;;4992983;28;20038;-73
2022/08/24 08:28:23;;;;;;;20.88;16.30;;;25.20;99.90;;;;;;4978656;28;20053;-73
2022/08/24 08:30:49;;;;;;;26.83;17.88;;;25.40;99.90;;;;;;4995171;28;20427;-73
2022/08/24 08:33:15;;;;;;;21.17;15.48;;;25.50;99.90;;;;;;4995303;28;20065;-73
2022/08/24 08:35:43;;;;;;;22.83;13.43;;;25.50;99.90;;;;;;4979138;28;20052;-73
2022/08/24 08:38:09;;;;;;;20.05;15.60;;;25.70;99.90;;;;;;4994297;28;20628;-73
2022/08/24 08:40:44;;;;;;;16.67;12.85;;;25.80;99.90;;;;;;4996558;28;20451;-73
2022/08/24 08:43:35;;;;;;;14.30;11.35;;;25.90;99.90;;;;;;4994228;28;20100;-73
2022/08/24 08:46:28;;;;;;;14.60;9.68;;;25.90;99.90;;;;;;4994173;28;20066;-73
2022/08/24 08:49:16;;;;;;;17.08;9.90;;;25.90;99.90;;;;;;4995041;28;20129;-74
2022/08/24 08:51:47;;;;;;;13.52;9.52;;;25.90;99.90;;;;;;4993771;28;20038;-74
2022/08/24 08:54:18;;;;;;;15.25;12.13;;;26.00;99.90;;;;;;4994994;28;20085;-74
2022/08/24 08:56:50;;;;;;;13.63;11.27;;;26.10;99.90;;;;;;4994571;28;20095;-74
2022/08/24 08:59:55;;;;;;;13.57;10.20;;;26.20;99.90;;;;;;4994396;28;20042;-73
2022/08/24 09:03:16;;;;;;;15.65;14.05;;;26.30;99.90;;;;;;4994533;28;20037;-74
2022/08/24 09:06:03;;;;;;;17.25;12.85;;;26.50;99.90;;;;;;4900479;29;20035;-74
2022/08/24 09:09:15;;;;;;;12.80;11.00;;;26.70;99.90;;;;;;4992181;28;20049;-74
2022/08/24 09:11:50;;;;;;;13.23;10.00;;;26.80;99.90;;;;;;4931642;29;20472;-78
2022/08/24 09:14:36;;;;;;;13.48;11.57;;;26.90;99.90;;;;;;4983282;28;20635;-76
2022/08/24 09:17:07;;;;;;;14.55;12.18;;;27.00;99.90;;;;;;4994108;28;20049;-76
2022/08/24 09:20:08;;;;;;;14.70;12.77;;;27.10;99.90;;;;;;4993993;28;20038;-75
2022/08/24 09:22:39;;;;;;;13.23;11.57;;;27.20;99.90;;;;;;5009522;28;20041;-76
2022/08/24 09:25:31;;;;;;;13.93;10.07;;;27.20;99.90;;;;;;4978290;28;20514;-76
2022/08/24 09:28:19;;;;;;;11.95;9.82;;;27.30;99.90;;;;;;4996810;28;20068;-76
2022/08/24 09:30:57;;;;;;;9.82;8.60;;;27.50;99.90;;;;;;4993159;28;20046;-76
2022/08/24 09:33:48;;;;;;;12.63;9.30;;;27.60;99.90;;;;;;5012471;28;20057;-76
2022/08/24 09:36:29;;;;;;;11.93;9.43;;;27.70;99.90;;;;;;4991610;28;20052;-76
2022/08/24 09:39:02;;;;;;;11.98;7.97;;;27.80;98.60;;;;;;5009804;28;20150;-76
2022/08/24 09:42:11;;;;;;;11.13;7.80;;;27.90;99.10;;;;;;4991100;28;20125;-76
2022/08/24 09:44:49;;;;;;;10.93;7.53;;;28.00;98.40;;;;;;4995010;28;20137;-77
2022/08/24 09:47:39;;;;;;;10.32;7.10;;;28.00;97.40;;;;;;4986933;28;20052;-76
2022/08/24 09:50:08;;;;;;;10.20;7.03;;;28.10;97.90;;;;;;4981793;28;20073;-76
2022/08/24 09:52:46;;;;;;;7.22;6.30;;;28.30;98.10;;;;;;4995604;28;20558;-76
2022/08/24 09:55:36;;;;;;;14.50;6.60;;;28.30;97.40;;;;;;4993048;28;20038;-76
2022/08/24 09:58:33;;;;;;;9.00;6.10;;;28.40;96.60;;;;;;4993729;28;20135;-76
2022/08/24 10:01:27;;;;;;;15.77;5.88;;;28.40;96.70;;;;;;4993305;28;20045;-77
2022/08/24 10:04:10;;;;;;;8.30;5.43;;;28.60;96.40;;;;;;4992592;28;20034;-77
2022/08/24 10:06:56;;;;;;;10.73;5.80;;;28.80;96.50;;;;;;4991261;28;20033;-77
2022/08/24 10:09:57;;;;;;;9.40;5.40;;;28.90;96.10;;;;;;4992950;28;20041;-76
2022/08/24 10:12:50;;;;;;;8.85;6.90;;;29.00;95.20;;;;;;5008736;28;20144;-77
2022/08/24 10:15:27;;;;;;;8.07;5.72;;;29.10;94.20;;;;;;4979820;28;20049;-75
2022/08/24 10:18:16;;;;;;;8.02;5.35;;;29.10;94.50;;;;;;4988252;28;20034;-75
2022/08/24 10:21:00;;;;;;;11.57;5.68;;;29.20;94.60;;;;;;4991242;28;20077;-75
2022/08/24 10:23:57;;;;;;;13.23;6.22;;;29.40;94.80;;;;;;4988610;28;20038;-75
2022/08/24 10:26:47;;;;;;;11.85;5.88;;;29.50;94.10;;;;;;4992101;28;20056;-74
2022/08/24 10:29:22;;;;;;;10.93;6.72;;;29.60;93.50;;;;;;4995660;28;20049;-74
2022/08/24 10:32:07;;;;;;;7.90;5.72;;;29.60;93.00;;;;;;4982973;28;20041;-73
2022/08/24 10:34:59;;;;;;;8.30;5.43;;;29.80;93.40;;;;;;5001691;28;20072;-73
2022/08/24 10:41:03;;;;;;;8.02;5.10;;;30.10;92.10;;;;;;5002861;28;20054;-74
2022/08/24 10:43:52;;;;;;;8.07;5.57;;;29.90;92.30;;;;;;4991888;28;20167;-75
2022/08/24 10:46:24;;;;;;;10.48;5.22;;;30.10;91.70;;;;;;4992013;28;20049;-75
2022/08/24 10:49:31;;;;;;;7.93;5.43;;;30.00;90.40;;;;;;4984800;28;20056;-75
2022/08/24 10:51:56;;;;;;;8.90;5.50;;;30.00;90.90;;;;;;4993574;28;20034;-75
2022/08/24 10:54:22;;;;;;;11.10;5.97;;;30.10;91.00;;;;;;4995251;28;20049;-75
2022/08/24 10:57:06;;;;;;;9.85;5.93;;;30.20;91.30;;;;;;4991519;28;20048;-75
2022/08/24 11:00:03;;;;;;;9.73;5.65;;;30.20;90.90;;;;;;4993138;28;20398;-75
2022/08/24 11:02:31;;;;;;;5.85;4.72;;;30.30;90.80;;;;;;4992683;28;20041;-75
2022/08/24 11:05:00;;;;;;;5.97;4.65;;;30.30;90.60;;;;;;4993222;28;20727;-75
2022/08/24 11:07:26;;;;;;;6.03;3.72;;;30.50;90.80;;;;;;4992665;28;20051;-75
2022/08/24 11:10:08;;;;;;;7.28;4.20;;;30.50;90.70;;;;;;4977535;28;20050;-75
2022/08/24 11:12:41;;;;;;;3.75;2.75;;;30.70;90.10;;;;;;4976838;28;20068;-75
2022/08/24 11:15:16;;;;;;;5.80;3.55;;;30.90;88.10;;;;;;4983006;28;20072;-75
2022/08/24 11:17:56;;;;;;;4.25;3.15;;;31.10;89.30;;;;;;4991654;28;20112;-75
2022/08/24 11:20:35;;;;;;;2.42;2.05;;;31.20;90.10;;;;;;4993002;28;20471;-75
2022/08/24 11:23:05;;;;;;;3.25;2.20;;;31.40;86.60;;;;;;4977371;28;20078;-75
2022/08/24 11:25:34;;;;;;;4.63;1.80;;;31.50;86.30;;;;;;4996240;28;20040;-75
2022/08/24 11:28:21;;;;;;;5.53;1.90;;;31.50;86.50;;;;;;4992025;28;20033;-75
2022/08/24 11:30:48;;;;;;;2.78;1.88;;;31.50;84.70;;;;;;5002051;28;20071;-75
2022/08/24 11:33:33;;;;;;;3.55;2.45;;;31.40;83.60;;;;;;4998462;28;20046;-75
2022/08/24 11:36:00;;;;;;;2.55;1.90;;;31.50;83.00;;;;;;4978838;28;20166;-75
2022/08/24 11:38:33;;;;;;;3.33;1.77;;;31.50;82.70;;;;;;4978827;28;20562;-75
2022/08/24 11:41:25;;;;;;;2.53;1.98;;;31.50;81.30;;;;;;5012914;28;20045;-75
2022/08/24 11:43:51;;;;;;;4.30;1.70;;;31.30;79.80;;;;;;4995306;28;20042;-75
2022/08/24 11:46:19;;;;;;;2.55;1.60;;;31.40;81.80;;;;;;4991027;28;20398;-75
2022/08/24 11:49:07;;;;;;;2.30;1.85;;;31.40;81.40;;;;;;4988524;28;20046;-74
2022/08/24 11:51:41;;;;;;;4.25;1.80;;;31.50;80.90;;;;;;5004058;28;20042;-75
2022/08/24 11:54:23;;;;;;;5.35;1.90;;;31.60;79.80;;;;;;4996702;28;20037;-74
2022/08/24 11:56:51;;;;;;;3.30;2.00;;;31.60;80.10;;;;;;4978759;28;20041;-75
2022/08/24 11:59:32;;;;;;;1.65;1.30;;;31.30;79.60;;;;;;5000543;28;20080;-74
2022/08/24 12:02:11;;;;;;;4.88;2.10;;;30.90;78.50;;;;;;5004874;28;20517;-75
2022/08/24 12:04:37;;;;;;;4.22;1.92;;;30.50;78.40;;;;;;5003289;28;20602;-75
2022/08/24 12:07:20;;;;;;;2.22;1.83;;;30.50;81.10;;;;;;5003559;28;20056;-75
2022/08/24 12:09:55;;;;;;;5.90;2.28;;;30.70;80.60;;;;;;4988275;28;20037;-75
2022/08/24 12:12:37;;;;;;;1.77;1.48;;;30.80;80.00;;;;;;5007229;28;20045;-75
2022/08/24 12:15:36;;;;;;;3.80;1.92;;;31.00;79.20;;;;;;5000509;28;20038;-75
2022/08/24 12:18:22;;;;;;;3.88;1.52;;;31.20;79.30;;;;;;5002639;28;20037;-75
2022/08/24 12:20:49;;;;;;;3.10;1.83;;;31.40;79.10;;;;;;4978517;28;20061;-75
2022/08/24 12:23:37;;;;;;;2.90;1.98;;;31.40;78.70;;;;;;5002370;28;20049;-74
2022/08/24 12:26:23;;;;;;;2.15;1.80;;;31.50;77.70;;;;;;5002913;28;20518;-75
2022/08/24 12:28:54;;;;;;;1.67;1.58;;;31.60;77.70;;;;;;4983540;28;20049;-75
2022/08/24 12:31:33;;;;;;;2.42;1.88;;;31.70;79.20;;;;;;5003406;28;20032;-75
2022/08/24 12:34:03;;;;;;;15.32;2.13;;;31.80;77.60;;;;;;5003160;28;20090;-75
2022/08/24 12:36:52;;;;;;;4.18;1.52;;;31.90;76.80;;;;;;5007167;28;20524;-75
2022/08/24 12:39:28;;;;;;;4.55;1.55;;;32.00;75.50;;;;;;5003437;28;20077;-75
2022/08/24 12:42:04;;;;;;;2.17;1.15;;;31.90;74.30;;;;;;4988246;28;20132;-75
2022/08/24 12:44:54;;;;;;;1.73;1.10;;;32.00;74.00;;;;;;5008692;28;20077;-75
2022/08/24 12:47:25;;;;;;;2.00;1.30;;;32.10;72.90;;;;;;4991645;28;20061;-75
2022/08/24 12:49:54;;;;;;;;;;;32.30;73.50;;;;;;4997547;28;20913;-75
2022/08/24 12:52:57;;;;;;;4.60;1.27;;;32.30;71.60;;;;;;5006647;28;19917;-75
2022/08/24 12:55:50;;;;;;;1.95;1.30;;;32.40;71.90;;;;;;4990600;28;20495;-75
2022/08/24 12:59:00;;;;;;;1.83;1.40;;;32.50;72.10;;;;;;4991243;28;20046;-74
2022/08/24 13:01:34;;;;;;;3.05;1.60;;;32.40;70.90;;;;;;4914942;29;20038;-75
2022/08/24 13:04:04;;;;;;;2.30;1.80;;;32.40;72.40;;;;;;4927552;29;20401;-74
2022/08/24 13:06:42;;;;;;;2.50;1.58;;;32.10;71.10;;;;;;4963270;28;20511;-75
2022/08/24 13:09:26;;;;;;;1.75;1.30;;;32.20;71.20;;;;;;4989941;28;20038;-74
2022/08/24 13:11:54;;;;;;;1.55;1.30;;;32.30;70.50;;;;;;4992301;28;20045;-74